Terminal Aerodrome Forecast
Issued by NWS Memphis, TN

Current Version | Previous Version | Text Only | Print | Product List | Glossary On
Versions: 1 2 3 4 5 6 7 8 9 10 11 12 13 14 15 16
651
FTUS44 KMEG 211742
TAFMKL
TAF
KMKL 211742Z 2118/2218 20009KT P6SM -SHRA OVC015
     FM212000 18005KT P6SM VCSH OVC025
     FM220000 VRB03KT P6SM -SHRA OVC015
     FM220400 00000KT 4SM BR OVC007
     FM220800 VRB03KT 3SM BR OVC005
     FM221600 08004KT P6SM SCT005 OVC010=

USA.gov is the U.S. government's official web portal to all federal, state and local government web resources and services.